Time,TemperatureF,DewpointF,PressureIn,WindDirection,WindDirectionDegrees,WindSpeedMPH,WindSpeedGustMPH,Humidity,HourlyPrecipIn,Conditions,Clouds,dailyrainin,SoftwareType,DateUTC
2013-01-22 00:00:00,32.5,12.5,29.79,North,0,0.0,0.0,43,0.00,CLR,CLR,0.00,WeatherDisplay:10.37,2013-01-22 05:00:00,
2013-01-22 00:02:00,32.5,12.0,29.79,NNE,22,0.0,0.0,42,0.00,CLR,CLR,0.00,WeatherDisplay:10.37,2013-01-22 05:02:00,
2013-01-22 00:03:00,32.5,12.0,29.79,NNE,22,0.0,0.0,42,0.00,CLR,CLR,0.00,WeatherDisplay:10.37,2013-01-22 05:03:00,
2013-01-22 00:08:00,32.5,12.0,29.79,NNE,22,0.0,0.0,42,0.00,CLR,CLR,0.00,WeatherDisplay:10.37,2013-01-22 05:08:00,
2013-01-22 00:13:00,31.8,11.8,29.80,North,0,0.0,0.0,43,0.00,CLR,CLR,0.00,WeatherDisplay:10.37,2013-01-22 05:13:00,
2013-01-22 00:18:00,31.6,11.1,29.80,NNE,22,0.0,0.0,42,0.00,CLR,CLR,0.00,WeatherDisplay:10.37,2013-01-22 05:18:00,
2013-01-22 00:23:00,31.8,11.3,29.80,North,0,0.0,0.0,42,0.00,CLR,CLR,0.00,WeatherDisplay:10.37,2013-01-22 05:23:00,
2013-01-22 00:29:00,32.0,12.5,29.79,North,0,0.0,0.0,44,0.00,CLR,CLR,0.00,WeatherDisplay:10.37,2013-01-22 05:29:00,
2013-01-22 00:34:00,31.8,11.3,29.80,North,0,0.0,0.0,42,0.00,CLR,CLR,0.00,WeatherDisplay:10.37,2013-01-22 05:34:00,
2013-01-22 00:39:00,31.6,11.1,29.80,NE,45,0.0,0.0,42,0.00,CLR,CLR,0.00,WeatherDisplay:10.37,2013-01-22 05:39:00,
2013-01-22 00:44:00,31.6,11.7,29.80,North,0,0.0,0.0,43,0.00,CLR,CLR,0.00,WeatherDisplay:10.37,2013-01-22 05:44:00,
2013-01-22 00:49:00,31.3,11.3,29.80,WNW,292,0.0,0.0,43,0.00,CLR,CLR,0.00,WeatherDisplay:10.37,2013-01-22 05:49:00,
2013-01-22 00:54:00,30.9,10.5,29.80,NNE,22,0.0,0.0,42,0.00,CLR,CLR,0.00,WeatherDisplay:10.37,2013-01-22 05:54:00,
2013-01-22 00:59:00,30.9,10.5,29.80,NNE,22,2.6,2.6,42,0.00,CLR,CLR,0.00,WeatherDisplay:10.37,2013-01-22 05:59:00,
2013-01-22 01:04:00,31.1,10.6,29.80,North,0,0.0,0.0,42,0.00,CLR,CLR,0.00,WeatherDisplay:10.37,2013-01-22 06:04:00,
2013-01-22 01:09:00,31.1,10.6,29.80,North,0,0.0,0.0,42,0.00,CLR,CLR,0.00,WeatherDisplay:10.37,2013-01-22 06:09:00,
2013-01-22 01:15:00,30.9,10.5,29.80,NE,45,0.0,0.0,42,0.00,CLR,CLR,0.00,WeatherDisplay:10.37,2013-01-22 06:15:00,
2013-01-22 01:20:00,30.7,9.8,29.80,NNE,22,2.9,3.5,41,0.00,CLR,CLR,0.00,WeatherDisplay:10.37,2013-01-22 06:20:00,
2013-01-22 01:25:00,30.4,8.3,29.81,NNE,22,2.4,2.4,39,0.00,CLR,CLR,0.00,WeatherDisplay:10.37,2013-01-22 06:25:00,
2013-01-22 01:30:00,30.7,9.2,29.81,NNE,22,0.0,0.0,40,0.00,CLR,CLR,0.00,WeatherDisplay:10.37,2013-01-22 06:30:00,
2013-01-22 01:35:00,30.6,8.5,29.81,NNE,22,0.0,0.0,39,0.00,CLR,CLR,0.00,WeatherDisplay:10.37,2013-01-22 06:35:00,
2013-01-22 01:40:00,30.4,8.3,29.81,NW,315,4.9,4.9,39,0.00,CLR,CLR,0.00,WeatherDisplay:10.37,2013-01-22 06:40:00,
2013-01-22 01:45:00,30.4,8.3,29.81,NNE,22,0.0,0.0,39,0.00,CLR,CLR,0.00,WeatherDisplay:10.37,2013-01-22 06:45:00,
2013-01-22 01:51:00,29.8,7.3,29.81,NNW,338,0.0,0.0,38,0.00,CLR,CLR,0.00,WeatherDisplay:10.37,2013-01-22 06:51:00,
2013-01-22 01:56:00,29.8,7.9,29.81,NNW,338,0.0,0.0,39,0.00,CLR,CLR,0.00,WeatherDisplay:10.37,2013-01-22 06:56:00,
2013-01-22 02:01:00,29.5,8.1,29.81,NE,45,0.0,0.0,40,0.00,CLR,CLR,0.00,WeatherDisplay:10.37,2013-01-22 07:01:00,
2013-01-22 02:06:00,29.3,7.4,29.82,NNE,22,0.0,0.0,39,0.00,CLR,CLR,0.00,WeatherDisplay:10.37,2013-01-22 07:06:00,
2013-01-22 02:11:00,28.9,7.6,29.81,NNE,22,0.0,0.0,40,0.00,CLR,CLR,0.00,WeatherDisplay:10.37,2013-01-22 07:11:00,
2013-01-22 02:16:00,28.8,6.3,29.82,North,0,0.0,0.0,38,0.00,CLR,CLR,0.00,WeatherDisplay:10.37,2013-01-22 07:16:00,
2013-01-22 02:21:00,28.8,7.4,29.81,NNE,22,0.0,0.0,40,0.00,CLR,CLR,0.00,WeatherDisplay:10.37,2013-01-22 07:21:00,
2013-01-22 02:26:00,28.6,6.7,29.82,NE,45,0.0,0.0,39,0.00,CLR,CLR,0.00,WeatherDisplay:10.37,2013-01-22 07:26:00,
2013-01-22 02:32:00,28.4,6.0,29.82,NNW,338,0.0,0.0,38,0.00,CLR,CLR,0.00,WeatherDisplay:10.37,2013-01-22 07:32:00,
2013-01-22 02:37:00,28.0,5.7,29.83,North,0,2.2,2.3,38,0.00,CLR,CLR,0.00,WeatherDisplay:10.37,2013-01-22 07:37:00,
2013-01-22 02:42:00,28.4,6.0,29.84,North,0,0.0,0.0,38,0.00,CLR,CLR,0.00,WeatherDisplay:10.37,2013-01-22 07:42:00,
2013-01-22 02:47:00,28.6,6.1,29.83,NW,315,0.0,0.0,38,0.00,CLR,CLR,0.00,WeatherDisplay:10.37,2013-01-22 07:47:00,
2013-01-22 02:52:00,28.2,5.8,29.83,NNW,338,0.0,0.0,38,0.00,CLR,CLR,0.00,WeatherDisplay:10.37,2013-01-22 07:52:00,
2013-01-22 02:57:00,28.2,5.8,29.83,NNE,22,0.0,0.0,38,0.00,CLR,CLR,0.00,WeatherDisplay:10.37,2013-01-22 07:57:00,
2013-01-22 03:03:00,28.0,5.7,29.83,NNE,22,0.0,0.0,38,0.00,CLR,CLR,0.00,WeatherDisplay:10.37,2013-01-22 08:03:00,
2013-01-22 03:08:00,28.2,5.8,29.83,NNE,22,0.0,0.0,38,0.00,CLR,CLR,0.00,WeatherDisplay:10.37,2013-01-22 08:08:00,
2013-01-22 03:13:00,28.2,5.8,29.83,NNE,22,3.3,3.5,38,0.00,CLR,CLR,0.00,WeatherDisplay:10.37,2013-01-22 08:13:00,
2013-01-22 03:18:00,28.4,6.0,29.84,NNE,22,0.0,0.0,38,0.00,CLR,CLR,0.00,WeatherDisplay:10.37,2013-01-22 08:18:00,
2013-01-22 03:23:00,28.2,6.4,29.84,North,0,5.3,5.8,39,0.00,CLR,CLR,0.00,WeatherDisplay:10.37,2013-01-22 08:23:00,
2013-01-22 03:28:00,28.0,6.2,29.84,North,0,4.4,4.6,39,0.00,CLR,CLR,0.00,WeatherDisplay:10.37,2013-01-22 08:28:00,
2013-01-22 03:34:00,27.7,5.3,29.84,NNE,22,4.2,4.6,38,0.00,CLR,CLR,0.00,WeatherDisplay:10.37,2013-01-22 08:34:00,
2013-01-22 03:39:00,28.0,5.7,29.84,North,0,6.1,6.1,38,0.00,CLR,CLR,0.00,WeatherDisplay:10.37,2013-01-22 08:39:00,
2013-01-22 03:44:00,28.0,6.8,29.84,NNE,22,4.0,4.0,40,0.00,CLR,CLR,0.00,WeatherDisplay:10.37,2013-01-22 08:44:00,
2013-01-22 03:49:00,27.9,6.1,29.84,North,0,5.3,5.8,39,0.00,CLR,CLR,0.00,WeatherDisplay:10.37,2013-01-22 08:49:00,
2013-01-22 03:54:00,27.7,5.9,29.84,NNW,338,8.6,8.6,39,0.00,CLR,CLR,0.00,WeatherDisplay:10.37,2013-01-22 08:54:00,
2013-01-22 03:59:00,27.3,6.1,29.84,NNE,22,4.4,4.6,40,0.00,CLR,CLR,0.00,WeatherDisplay:10.37,2013-01-22 08:59:00,
2013-01-22 04:04:00,27.1,6.0,29.84,NNE,22,2.2,2.3,40,0.00,CLR,CLR,0.00,WeatherDisplay:10.37,2013-01-22 09:04:00,
2013-01-22 04:09:00,27.3,6.1,29.84,NNE,22,0.0,0.0,40,0.00,CLR,CLR,0.00,WeatherDisplay:10.37,2013-01-22 09:09:00,
2013-01-22 04:14:00,27.1,6.5,29.84,NNE,22,1.1,1.2,41,0.00,CLR,CLR,0.00,WeatherDisplay:10.37,2013-01-22 09:14:00,
2013-01-22 04:19:00,27.0,6.4,29.84,NNW,338,3.3,3.5,41,0.00,CLR,CLR,0.00,WeatherDisplay:10.37,2013-01-22 09:19:00,
2013-01-22 04:25:00,26.8,5.6,29.85,North,0,4.2,4.6,40,0.00,CLR,CLR,0.00,WeatherDisplay:10.37,2013-01-22 09:25:00,
2013-01-22 04:30:00,27.0,5.8,29.85,NNE,22,3.8,3.8,40,0.00,CLR,CLR,0.00,WeatherDisplay:10.37,2013-01-22 09:30:00,
2013-01-22 04:35:00,26.8,6.2,29.85,North,0,3.8,3.8,41,0.00,CLR,CLR,0.00,WeatherDisplay:10.37,2013-01-22 09:35:00,
2013-01-22 04:40:00,26.8,5.6,29.85,NNW,338,0.0,0.0,40,0.00,CLR,CLR,0.00,WeatherDisplay:10.37,2013-01-22 09:40:00,
2013-01-22 04:45:00,26.4,5.3,29.85,NNE,22,3.8,3.8,40,0.00,CLR,CLR,0.00,WeatherDisplay:10.37,2013-01-22 09:45:00,
2013-01-22 04:50:00,26.2,5.2,29.86,North,0,3.3,3.5,40,0.00,CLR,CLR,0.00,WeatherDisplay:10.37,2013-01-22 09:50:00,
2013-01-22 04:55:00,26.4,5.3,29.86,North,0,4.2,4.2,40,0.00,CLR,CLR,0.00,WeatherDisplay:10.37,2013-01-22 09:55:00,
2013-01-22 05:00:00,26.4,5.3,29.86,North,0,0.0,0.0,40,0.00,CLR,CLR,0.00,WeatherDisplay:10.37,2013-01-22 10:00:00,
2013-01-22 05:06:00,26.2,5.7,29.87,North,0,1.5,1.5,41,0.00,CLR,CLR,0.00,WeatherDisplay:10.37,2013-01-22 10:06:00,
2013-01-22 05:11:00,26.2,4.6,29.87,NNE,22,0.0,0.0,39,0.00,CLR,CLR,0.00,WeatherDisplay:10.37,2013-01-22 10:11:00,
2013-01-22 05:16:00,26.2,5.2,29.87,NW,315,0.0,0.0,40,0.00,CLR,CLR,0.00,WeatherDisplay:10.37,2013-01-22 10:16:00,
2013-01-22 05:21:00,25.7,5.2,29.87,North,0,0.0,0.0,41,0.00,CLR,CLR,0.00,WeatherDisplay:10.37,2013-01-22 10:21:00,
2013-01-22 05:26:00,25.5,5.0,29.87,NNE,22,0.0,0.0,41,0.00,CLR,CLR,0.00,WeatherDisplay:10.37,2013-01-22 10:26:00,
2013-01-22 05:31:00,25.3,4.9,29.87,NNE,22,0.0,0.0,41,0.00,CLR,CLR,0.00,WeatherDisplay:10.37,2013-01-22 10:31:00,
2013-01-22 05:36:00,25.3,5.4,29.87,West,270,0.0,0.0,42,0.00,CLR,CLR,0.00,WeatherDisplay:10.37,2013-01-22 10:36:00,
2013-01-22 05:41:00,25.2,4.7,29.87,NNE,22,0.0,0.0,41,0.00,CLR,CLR,0.00,WeatherDisplay:10.37,2013-01-22 10:41:00,
2013-01-22 05:46:00,25.0,4.6,29.88,NNE,22,0.0,0.0,41,0.00,CLR,CLR,0.00,WeatherDisplay:10.37,2013-01-22 10:46:00,
2013-01-22 05:51:00,25.0,4.6,29.88,NNE,22,0.0,0.0,41,0.00,CLR,CLR,0.00,WeatherDisplay:10.37,2013-01-22 10:51:00,
2013-01-22 05:57:00,24.8,4.4,29.88,NNE,22,0.0,0.0,41,0.00,CLR,CLR,0.00,WeatherDisplay:10.37,2013-01-22 10:57:00,
2013-01-22 06:02:00,24.4,4.6,29.89,ENE,68,0.0,0.0,42,0.00,CLR,CLR,0.00,WeatherDisplay:10.37,2013-01-22 11:02:00,
2013-01-22 06:07:00,24.4,4.6,29.89,NE,45,0.0,0.0,42,0.00,CLR,CLR,0.00,WeatherDisplay:10.37,2013-01-22 11:07:00,
2013-01-22 06:12:00,24.1,4.3,29.90,NNE,22,0.0,0.0,42,0.00,CLR,CLR,0.00,WeatherDisplay:10.37,2013-01-22 11:12:00,
2013-01-22 06:17:00,24.3,3.9,29.91,NE,45,0.0,0.0,41,0.00,CLR,CLR,0.00,WeatherDisplay:10.37,2013-01-22 11:17:00,
2013-01-22 06:22:00,24.4,4.1,29.91,NNE,22,0.0,0.0,41,0.00,CLR,CLR,0.00,WeatherDisplay:10.37,2013-01-22 11:22:00,
2013-01-22 06:27:00,24.3,3.9,29.91,NNE,22,0.0,0.0,41,0.00,CLR,CLR,0.00,WeatherDisplay:10.37,2013-01-22 11:27:00,
2013-01-22 06:33:00,24.1,3.2,29.91,NE,45,0.0,0.0,40,0.00,CLR,CLR,0.00,WeatherDisplay:10.37,2013-01-22 11:33:00,
2013-01-22 06:38:00,24.1,4.3,29.91,NE,45,0.0,0.0,42,0.00,CLR,CLR,0.00,WeatherDisplay:10.37,2013-01-22 11:38:00,
2013-01-22 06:43:00,23.9,3.6,29.92,NE,45,0.0,0.0,41,0.00,CLR,CLR,0.00,WeatherDisplay:10.37,2013-01-22 11:43:00,
2013-01-22 06:48:00,23.7,3.9,29.92,NE,45,0.0,0.0,42,0.00,CLR,CLR,0.00,WeatherDisplay:10.37,2013-01-22 11:48:00,
2013-01-22 06:53:00,23.5,4.3,29.92,NNE,22,0.0,0.0,43,0.00,CLR,CLR,0.00,WeatherDisplay:10.37,2013-01-22 11:53:00,
2013-01-22 06:58:00,23.5,3.8,29.92,NNE,22,0.0,0.0,42,0.00,CLR,CLR,0.00,WeatherDisplay:10.37,2013-01-22 11:58:00,
2013-01-22 07:03:00,23.5,4.3,29.92,NNE,22,0.0,0.0,43,0.00,CLR,CLR,0.00,WeatherDisplay:10.37,2013-01-22 12:03:00,
2013-01-22 07:08:00,23.2,3.4,29.92,NNE,22,0.0,0.0,42,0.00,CLR,CLR,0.00,WeatherDisplay:10.37,2013-01-22 12:08:00,
2013-01-22 07:14:00,23.4,3.1,29.93,NNE,22,0.0,0.0,41,0.00,CLR,CLR,0.00,WeatherDisplay:10.37,2013-01-22 12:14:00,
2013-01-22 07:19:00,23.4,3.6,29.93,NNE,22,0.0,0.0,42,0.00,CLR,CLR,0.00,WeatherDisplay:10.37,2013-01-22 12:19:00,
2013-01-22 07:24:00,23.2,3.4,29.93,NNE,22,0.0,0.0,42,0.00,CLR,CLR,0.00,WeatherDisplay:10.37,2013-01-22 12:24:00,
2013-01-22 07:29:00,23.2,4.0,29.93,NNE,22,0.0,0.0,43,0.00,CLR,CLR,0.00,WeatherDisplay:10.37,2013-01-22 12:29:00,
2013-01-22 07:34:00,23.2,3.4,29.93,NNE,22,0.0,0.0,42,0.00,CLR,CLR,0.00,WeatherDisplay:10.37,2013-01-22 12:34:00,
2013-01-22 07:39:00,23.4,3.1,29.94,NNE,22,0.0,0.0,41,0.00,CLR,CLR,0.00,WeatherDisplay:10.37,2013-01-22 12:39:00,
2013-01-22 07:44:00,23.5,3.3,29.94,North,0,4.6,4.6,41,0.00,CLR,CLR,0.00,WeatherDisplay:10.37,2013-01-22 12:44:00,
2013-01-22 07:49:00,23.5,3.3,29.94,NNE,22,0.0,0.0,41,0.00,CLR,CLR,0.00,WeatherDisplay:10.37,2013-01-22 12:49:00,
2013-01-22 07:54:00,23.5,2.7,29.94,North,0,2.4,2.4,40,0.00,CLR,CLR,0.00,WeatherDisplay:10.37,2013-01-22 12:54:00,
2013-01-22 07:59:00,23.5,3.3,29.95,NNE,22,0.0,0.0,41,0.00,CLR,CLR,0.00,WeatherDisplay:10.37,2013-01-22 12:59:00,
2013-01-22 08:04:00,23.5,3.3,29.95,NNE,22,0.0,0.0,41,0.00,CLR,CLR,0.00,WeatherDisplay:10.37,2013-01-22 13:04:00,
2013-01-22 08:09:00,23.5,2.7,29.95,NNE,22,0.0,0.0,40,0.00,CLR,CLR,0.00,WeatherDisplay:10.37,2013-01-22 13:09:00,
2013-01-22 08:15:00,23.7,3.4,29.96,North,0,2.2,2.3,41,0.00,CLR,CLR,0.00,WeatherDisplay:10.37,2013-01-22 13:15:00,
2013-01-22 08:20:00,23.7,3.9,29.96,North,0,3.3,3.5,42,0.00,CLR,CLR,0.00,WeatherDisplay:10.37,2013-01-22 13:20:00,
2013-01-22 08:25:00,23.7,2.9,29.96,North,0,0.6,1.2,40,0.00,CLR,CLR,0.00,WeatherDisplay:10.37,2013-01-22 13:25:00,
2013-01-22 08:30:00,23.7,2.9,29.97,North,0,1.1,1.2,40,0.00,CLR,CLR,0.00,WeatherDisplay:10.37,2013-01-22 13:30:00,
2013-01-22 08:35:00,23.7,2.9,29.97,NNE,22,1.7,1.7,40,0.00,CLR,CLR,0.00,WeatherDisplay:10.37,2013-01-22 13:35:00,
2013-01-22 08:40:00,23.7,2.3,29.97,NNE,22,2.4,2.4,39,0.00,CLR,CLR,0.00,WeatherDisplay:10.37,2013-01-22 13:40:00,
2013-01-22 08:45:00,23.9,1.9,29.97,North,0,0.0,0.0,38,0.00,CLR,CLR,0.00,WeatherDisplay:10.37,2013-01-22 13:45:00,
2013-01-22 08:50:00,23.9,1.9,29.97,NE,45,3.8,3.8,38,0.00,CLR,CLR,0.00,WeatherDisplay:10.37,2013-01-22 13:50:00,
2013-01-22 08:55:00,24.1,2.7,29.97,North,0,1.5,1.5,39,0.00,CLR,CLR,0.00,WeatherDisplay:10.37,2013-01-22 13:55:00,
2013-01-22 09:01:00,23.7,1.2,29.98,North,0,5.8,5.8,37,0.00,CLR,CLR,0.00,WeatherDisplay:10.37,2013-01-22 14:01:00,
2013-01-22 09:06:00,23.7,1.2,29.98,ENE,68,3.3,3.5,37,0.00,CLR,CLR,0.00,WeatherDisplay:10.37,2013-01-22 14:06:00,
2013-01-22 09:11:00,24.3,1.7,29.98,NNW,338,4.9,4.9,37,0.00,CLR,CLR,0.00,WeatherDisplay:10.37,2013-01-22 14:11:00,
2013-01-22 09:17:00,24.4,1.8,29.98,NNE,22,2.4,4.6,37,0.00,CLR,CLR,0.00,WeatherDisplay:10.37,2013-01-22 14:17:00,
2013-01-22 09:22:00,24.4,1.8,29.98,NNE,22,4.0,4.0,37,0.00,CLR,CLR,0.00,WeatherDisplay:10.37,2013-01-22 14:22:00,
2013-01-22 09:27:00,24.1,0.3,29.99,NE,45,2.6,2.6,35,0.00,CLR,CLR,0.00,WeatherDisplay:10.37,2013-01-22 14:27:00,
2013-01-22 09:32:00,24.6,1.4,29.99,NNE,22,2.6,2.6,36,0.00,CLR,CLR,0.00,WeatherDisplay:10.37,2013-01-22 14:32:00,
2013-01-22 09:37:00,24.6,1.4,29.99,North,0,0.0,0.0,36,0.00,CLR,CLR,0.00,WeatherDisplay:10.37,2013-01-22 14:37:00,
2013-01-22 09:42:00,25.2,1.9,30.00,NNE,22,2.0,3.5,36,0.00,CLR,CLR,0.00,WeatherDisplay:10.37,2013-01-22 14:42:00,
2013-01-22 09:47:00,25.0,1.1,30.00,West,270,0.8,1.2,35,0.00,CLR,CLR,0.00,WeatherDisplay:10.37,2013-01-22 14:47:00,
2013-01-22 09:52:00,25.2,0.7,30.00,NE,45,3.1,3.5,34,0.00,CLR,CLR,0.00,WeatherDisplay:10.37,2013-01-22 14:52:00,
2013-01-22 09:58:00,25.3,0.2,30.00,North,0,2.6,5.8,33,0.00,CLR,CLR,0.00,WeatherDisplay:10.37,2013-01-22 14:58:00,
2013-01-22 10:03:00,25.5,1.6,30.00,North,0,0.0,0.0,35,0.00,CLR,CLR,0.00,WeatherDisplay:10.37,2013-01-22 15:03:00,
2013-01-22 10:08:00,25.5,1.0,30.00,NNE,22,4.0,4.6,34,0.00,CLR,CLR,0.00,WeatherDisplay:10.37,2013-01-22 15:08:00,
2013-01-22 10:13:00,25.7,0.5,30.00,NNE,22,1.7,1.7,33,0.00,CLR,CLR,0.00,WeatherDisplay:10.37,2013-01-22 15:13:00,
2013-01-22 10:18:00,25.9,1.3,30.00,WNW,292,3.5,3.5,34,0.00,CLR,CLR,0.00,WeatherDisplay:10.37,2013-01-22 15:18:00,
2013-01-22 10:23:00,26.1,0.2,30.00,NNE,22,0.0,3.5,32,0.00,CLR,CLR,0.00,WeatherDisplay:10.37,2013-01-22 15:23:00,
2013-01-22 10:28:00,26.2,0.3,30.00,West,270,4.6,4.6,32,0.00,CLR,CLR,0.00,WeatherDisplay:10.37,2013-01-22 15:28:00,
2013-01-22 10:33:00,26.4,0.5,30.00,North,0,4.2,4.6,32,0.00,CLR,CLR,0.00,WeatherDisplay:10.37,2013-01-22 15:33:00,
2013-01-22 10:38:00,26.8,2.1,30.00,NNE,22,0.0,0.0,34,0.00,CLR,CLR,0.00,WeatherDisplay:10.37,2013-01-22 15:38:00,
2013-01-22 10:44:00,26.8,-0.6,30.00,North,0,5.2,5.8,30,0.00,CLR,CLR,0.00,WeatherDisplay:10.37,2013-01-22 15:44:00,
2013-01-22 10:49:00,26.8,0.1,30.00,North,0,2.6,2.6,31,0.00,CLR,CLR,0.00,WeatherDisplay:10.37,2013-01-22 15:49:00,
2013-01-22 10:54:00,26.8,-1.3,30.00,North,0,4.9,5.8,29,0.00,CLR,CLR,0.00,WeatherDisplay:10.37,2013-01-22 15:54:00,
2013-01-22 10:59:00,26.8,-0.6,30.00,North,0,2.9,3.5,30,0.00,CLR,CLR,0.00,WeatherDisplay:10.37,2013-01-22 15:59:00,
2013-01-22 11:04:00,27.5,0.1,30.00,NNW,338,0.0,0.0,30,0.00,CLR,CLR,0.00,WeatherDisplay:10.37,2013-01-22 16:04:00,
2013-01-22 11:09:00,28.0,0.5,30.00,North,0,4.2,4.6,30,0.00,CLR,CLR,0.00,WeatherDisplay:10.37,2013-01-22 16:09:00,
2013-01-22 11:14:00,28.0,1.2,30.00,WNW,292,0.0,0.0,31,0.00,CLR,CLR,0.00,WeatherDisplay:10.37,2013-01-22 16:14:00,
2013-01-22 11:20:00,28.4,0.9,30.00,North,0,2.0,2.3,30,0.00,CLR,CLR,0.00,WeatherDisplay:10.37,2013-01-22 16:20:00,
2013-01-22 11:25:00,28.4,0.1,30.00,North,0,2.4,2.4,29,0.00,CLR,CLR,0.00,WeatherDisplay:10.37,2013-01-22 16:25:00,
2013-01-22 11:30:00,28.8,1.9,30.00,North,0,8.8,9.2,31,0.00,CLR,CLR,0.00,WeatherDisplay:10.37,2013-01-22 16:30:00,
2013-01-22 11:35:00,28.6,1.0,30.00,West,270,3.1,3.5,30,0.00,CLR,CLR,0.00,WeatherDisplay:10.37,2013-01-22 16:35:00,
2013-01-22 11:40:00,28.8,1.2,30.00,North,0,0.0,0.0,30,0.00,CLR,CLR,0.00,WeatherDisplay:10.37,2013-01-22 16:40:00,
2013-01-22 11:45:00,28.8,1.9,30.00,NNE,22,0.0,0.0,31,0.00,CLR,CLR,0.00,WeatherDisplay:10.37,2013-01-22 16:45:00,
2013-01-22 11:50:00,29.1,2.2,30.00,North,0,0.0,2.3,31,0.00,CLR,CLR,0.00,WeatherDisplay:10.37,2013-01-22 16:50:00,
2013-01-22 11:55:00,29.3,1.6,29.99,West,270,0.0,0.0,30,0.00,CLR,CLR,0.00,WeatherDisplay:10.37,2013-01-22 16:55:00,
2013-01-22 12:00:00,29.7,2.0,29.99,NNW,338,0.0,0.0,30,0.00,CLR,CLR,0.00,WeatherDisplay:10.37,2013-01-22 17:00:00,
2013-01-22 12:05:00,29.8,2.8,29.99,NNE,22,0.0,0.0,31,0.00,CLR,CLR,0.00,WeatherDisplay:10.37,2013-01-22 17:05:00,
2013-01-22 12:11:00,29.8,1.4,29.99,NE,45,2.2,2.3,29,0.00,CLR,CLR,0.00,WeatherDisplay:10.37,2013-01-22 17:11:00,
2013-01-22 12:16:00,30.0,0.8,29.98,NW,315,5.8,5.8,28,0.00,CLR,CLR,0.00,WeatherDisplay:10.37,2013-01-22 17:16:00,
2013-01-22 12:22:00,30.0,1.5,29.98,NNW,338,4.0,4.0,29,0.00,CLR,CLR,0.00,WeatherDisplay:10.37,2013-01-22 17:22:00,
2013-01-22 12:27:00,30.0,2.3,29.98,NNE,22,2.9,3.5,30,0.00,CLR,CLR,0.00,WeatherDisplay:10.37,2013-01-22 17:27:00,
2013-01-22 12:32:00,30.0,1.5,29.97,NNE,22,3.8,3.8,29,0.00,CLR,CLR,0.00,WeatherDisplay:10.37,2013-01-22 17:32:00,
2013-01-22 12:38:00,30.4,1.1,29.97,NNW,338,2.0,2.3,28,0.00,CLR,CLR,0.00,WeatherDisplay:10.37,2013-01-22 17:38:00,
2013-01-22 12:43:00,30.7,2.2,29.97,WNW,292,3.3,3.5,29,0.00,CLR,CLR,0.00,WeatherDisplay:10.37,2013-01-22 17:43:00,
2013-01-22 12:48:00,31.1,2.5,29.97,NE,45,0.0,0.0,29,0.00,CLR,CLR,0.00,WeatherDisplay:10.37,2013-01-22 17:48:00,
2013-01-22 12:53:00,31.6,3.0,29.96,West,270,5.5,5.8,29,0.00,CLR,CLR,0.00,WeatherDisplay:10.37,2013-01-22 17:53:00,
2013-01-22 12:58:00,31.8,2.4,29.96,NNW,338,0.0,3.5,28,0.00,CLR,CLR,0.00,WeatherDisplay:10.37,2013-01-22 17:58:00,
2013-01-22 13:03:00,31.6,1.4,29.96,NNW,338,0.8,1.2,27,0.00,CLR,CLR,0.00,WeatherDisplay:10.37,2013-01-22 18:03:00,
2013-01-22 13:08:00,31.6,1.4,29.95,NNW,338,0.0,0.0,27,0.00,CLR,CLR,0.00,WeatherDisplay:10.37,2013-01-22 18:08:00,
2013-01-22 13:13:00,31.8,1.6,29.95,NE,45,0.0,3.5,27,0.00,CLR,CLR,0.00,WeatherDisplay:10.37,2013-01-22 18:13:00,
2013-01-22 13:18:00,31.8,1.6,29.95,NNE,22,0.0,0.0,27,0.00,CLR,CLR,0.00,WeatherDisplay:10.37,2013-01-22 18:18:00,
2013-01-22 13:23:00,31.8,0.8,29.95,NW,315,1.3,1.3,26,0.00,CLR,CLR,0.00,WeatherDisplay:10.37,2013-01-22 18:23:00,
2013-01-22 13:28:00,32.4,3.6,29.95,West,270,0.0,2.3,29,0.00,CLR,CLR,0.00,WeatherDisplay:10.37,2013-01-22 18:28:00,
2013-01-22 13:34:00,32.5,2.2,29.95,NNW,338,7.4,7.4,27,0.00,CLR,CLR,0.00,WeatherDisplay:10.37,2013-01-22 18:34:00,
2013-01-22 13:39:00,32.5,2.2,29.95,West,270,0.0,0.0,27,0.00,CLR,CLR,0.00,WeatherDisplay:10.37,2013-01-22 18:39:00,
2013-01-22 13:44:00,32.5,1.4,29.95,NNE,22,6.1,6.1,26,0.00,CLR,CLR,0.00,WeatherDisplay:10.37,2013-01-22 18:44:00,
2013-01-22 13:49:00,32.4,0.4,29.95,NNW,338,4.2,4.6,25,0.00,CLR,CLR,0.00,WeatherDisplay:10.37,2013-01-22 18:49:00,
2013-01-22 13:54:00,32.4,2.0,29.95,North,0,0.0,0.0,27,0.00,CLR,CLR,0.00,WeatherDisplay:10.37,2013-01-22 18:54:00,
2013-01-22 14:00:00,33.1,1.9,29.95,WNW,292,1.3,1.3,26,0.00,CLR,CLR,0.00,WeatherDisplay:10.37,2013-01-22 19:00:00,
2013-01-22 14:05:00,33.4,2.2,29.95,North,0,0.0,0.0,26,0.00,CLR,CLR,0.00,WeatherDisplay:10.37,2013-01-22 19:05:00,
2013-01-22 14:10:00,33.3,2.0,29.95,North,0,0.0,0.0,26,0.00,CLR,CLR,0.00,WeatherDisplay:10.37,2013-01-22 19:10:00,
2013-01-22 14:15:00,33.1,3.5,29.95,West,270,1.7,1.7,28,0.00,CLR,CLR,0.00,WeatherDisplay:10.37,2013-01-22 19:15:00,
2013-01-22 14:20:00,33.1,1.0,29.95,North,0,2.0,8.1,25,0.00,CLR,CLR,0.00,WeatherDisplay:10.37,2013-01-22 19:20:00,
2013-01-22 14:25:00,33.3,1.2,29.94,NNW,338,2.6,2.6,25,0.00,CLR,CLR,0.00,WeatherDisplay:10.37,2013-01-22 19:25:00,
2013-01-22 14:31:00,33.1,2.7,29.95,West,270,3.5,3.5,27,0.00,CLR,CLR,0.00,WeatherDisplay:10.37,2013-01-22 19:31:00,
2013-01-22 14:36:00,33.4,0.4,29.95,NNW,338,4.2,4.6,24,0.00,CLR,CLR,0.00,WeatherDisplay:10.37,2013-01-22 19:36:00,
2013-01-22 14:41:00,33.4,1.3,29.95,West,270,1.3,1.3,25,0.00,CLR,CLR,0.00,WeatherDisplay:10.37,2013-01-22 19:41:00,
2013-01-22 14:46:00,34.3,2.9,29.95,NNW,338,1.5,1.5,26,0.00,CLR,CLR,0.00,WeatherDisplay:10.37,2013-01-22 19:46:00,
2013-01-22 14:52:00,34.5,2.2,29.95,WSW,248,3.5,3.5,25,0.00,CLR,CLR,0.00,WeatherDisplay:10.37,2013-01-22 19:52:00,
2013-01-22 14:57:00,34.3,2.1,29.94,West,270,2.9,3.5,25,0.00,CLR,CLR,0.00,WeatherDisplay:10.37,2013-01-22 19:57:00,
2013-01-22 15:02:00,33.6,1.5,29.94,NNE,22,7.9,8.1,25,0.00,CLR,CLR,0.00,WeatherDisplay:10.37,2013-01-22 20:02:00,
2013-01-22 15:07:00,34.2,1.1,29.95,NNE,22,6.1,6.1,24,0.00,CLR,CLR,0.00,WeatherDisplay:10.37,2013-01-22 20:07:00,
2013-01-22 15:12:00,34.2,1.1,29.95,NNW,338,2.4,2.4,24,0.00,CLR,CLR,0.00,WeatherDisplay:10.37,2013-01-22 20:12:00,
2013-01-22 15:17:00,35.2,2.0,29.95,NNW,338,0.0,0.0,24,0.00,CLR,CLR,0.00,WeatherDisplay:10.37,2013-01-22 20:17:00,
2013-01-22 15:22:00,35.6,3.2,29.95,West,270,0.0,0.0,25,0.00,CLR,CLR,0.00,WeatherDisplay:10.37,2013-01-22 20:22:00,
2013-01-22 15:28:00,36.0,3.5,29.94,NW,315,10.2,10.4,25,0.00,CLR,CLR,0.00,WeatherDisplay:10.37,2013-01-22 20:28:00,
2013-01-22 15:33:00,36.0,1.7,29.95,West,270,0.0,0.0,23,0.00,CLR,CLR,0.00,WeatherDisplay:10.37,2013-01-22 20:33:00,
2013-01-22 15:38:00,36.3,2.9,29.95,NNW,338,2.9,0.0,24,0.00,CLR,CLR,0.00,WeatherDisplay:10.37,2013-01-22 20:38:00,
2013-01-22 15:43:00,35.8,1.5,29.95,North,0,1.1,1.2,23,0.00,CLR,CLR,0.00,WeatherDisplay:10.37,2013-01-22 20:43:00,
2013-01-22 15:48:00,35.6,2.3,29.96,WNW,292,0.0,0.0,24,0.00,CLR,CLR,0.00,WeatherDisplay:10.37,2013-01-22 20:48:00,
2013-01-22 15:53:00,36.1,1.8,29.96,NNW,338,0.8,1.2,23,0.00,CLR,CLR,0.00,WeatherDisplay:10.37,2013-01-22 20:53:00,
2013-01-22 15:58:00,36.0,3.5,29.95,NW,315,0.0,0.0,25,0.00,CLR,CLR,0.00,WeatherDisplay:10.37,2013-01-22 20:58:00,
2013-01-22 16:03:00,36.1,1.8,29.95,North,0,0.0,0.0,23,0.00,CLR,CLR,0.00,WeatherDisplay:10.37,2013-01-22 21:03:00,
2013-01-22 16:08:00,36.1,2.8,29.95,NNW,338,1.7,1.7,24,0.00,CLR,CLR,0.00,WeatherDisplay:10.37,2013-01-22 21:08:00,
2013-01-22 16:14:00,35.8,2.4,29.95,North,0,0.0,0.0,24,0.00,CLR,CLR,0.00,WeatherDisplay:10.37,2013-01-22 21:14:00,
2013-01-22 16:19:00,36.7,3.2,29.95,NNE,22,0.0,0.0,24,0.00,CLR,CLR,0.00,WeatherDisplay:10.37,2013-01-22 21:19:00,
2013-01-22 16:24:00,35.8,4.2,29.96,NNE,22,0.0,0.0,26,0.00,CLR,CLR,0.00,WeatherDisplay:10.37,2013-01-22 21:24:00,
2013-01-22 16:29:00,36.3,2.0,29.95,NW,315,0.0,0.0,23,0.00,CLR,CLR,0.00,WeatherDisplay:10.37,2013-01-22 21:29:00,
2013-01-22 16:31:00,36.7,3.2,29.95,North,0,0.0,0.0,24,0.00,CLR,CLR,0.00,WeatherDisplay:10.37,2013-01-22 21:31:00,
2013-01-22 16:36:00,37.0,3.5,29.95,NNE,22,0.0,0.0,24,0.00,CLR,CLR,0.00,WeatherDisplay:10.37,2013-01-22 21:36:00,
2013-01-22 16:41:00,36.1,0.9,29.95,NNW,338,0.0,0.0,22,0.00,CLR,CLR,0.00,WeatherDisplay:10.37,2013-01-22 21:41:00,
2013-01-22 16:46:00,35.8,2.4,29.95,North,0,0.0,0.0,24,0.00,CLR,CLR,0.00,WeatherDisplay:10.37,2013-01-22 21:46:00,
2013-01-22 16:52:00,35.8,1.5,29.96,NW,315,0.8,1.2,23,0.00,CLR,CLR,0.00,WeatherDisplay:10.37,2013-01-22 21:52:00,
2013-01-22 16:57:00,34.3,0.3,29.96,North,0,1.5,1.5,23,0.00,CLR,CLR,0.00,WeatherDisplay:10.37,2013-01-22 21:57:00,
2013-01-22 17:02:00,34.0,1.8,29.96,NNE,22,0.0,0.0,25,0.00,CLR,CLR,0.00,WeatherDisplay:10.37,2013-01-22 22:02:00,
2013-01-22 17:07:00,33.6,1.5,29.97,NE,45,2.4,2.4,25,0.00,CLR,CLR,0.00,WeatherDisplay:10.37,2013-01-22 22:07:00,
2013-01-22 17:12:00,33.1,1.0,29.97,North,0,0.0,0.0,25,0.00,CLR,CLR,0.00,WeatherDisplay:10.37,2013-01-22 22:12:00,
2013-01-22 17:17:00,32.5,2.2,29.97,WNW,292,0.0,0.0,27,0.00,CLR,CLR,0.00,WeatherDisplay:10.37,2013-01-22 22:17:00,
2013-01-22 17:23:00,32.0,0.9,29.97,North,0,0.0,0.0,26,0.00,CLR,CLR,0.00,WeatherDisplay:10.37,2013-01-22 22:23:00,
2013-01-22 17:28:00,31.6,0.6,29.98,NNE,22,0.0,0.0,26,0.00,CLR,CLR,0.00,WeatherDisplay:10.37,2013-01-22 22:28:00,
2013-01-22 17:33:00,31.1,1.0,29.98,North,0,0.0,0.0,27,0.00,CLR,CLR,0.00,WeatherDisplay:10.37,2013-01-22 22:33:00,
2013-01-22 17:38:00,31.1,1.0,29.97,North,0,0.0,0.0,27,0.00,CLR,CLR,0.00,WeatherDisplay:10.37,2013-01-22 22:38:00,
2013-01-22 17:43:00,30.2,-0.6,29.97,NNW,338,0.0,0.0,26,0.00,CLR,CLR,0.00,WeatherDisplay:10.37,2013-01-22 22:43:00,
2013-01-22 17:48:00,30.2,-0.6,29.98,NNW,338,0.0,0.0,26,0.00,CLR,CLR,0.00,WeatherDisplay:10.37,2013-01-22 22:48:00,
2013-01-22 17:53:00,29.8,-0.1,29.98,North,0,0.0,0.0,27,0.00,CLR,CLR,0.00,WeatherDisplay:10.37,2013-01-22 22:53:00,
2013-01-22 17:58:00,29.5,0.3,29.99,North,0,0.0,0.0,28,0.00,CLR,CLR,0.00,WeatherDisplay:10.37,2013-01-22 22:58:00,
2013-01-22 18:03:00,29.5,0.3,29.99,North,0,0.0,0.0,28,0.00,CLR,CLR,0.00,WeatherDisplay:10.37,2013-01-22 23:03:00,
2013-01-22 18:08:00,28.8,-0.3,29.99,North,0,0.0,0.0,28,0.00,CLR,CLR,0.00,WeatherDisplay:10.37,2013-01-22 23:08:00,
2013-01-22 18:14:00,28.6,0.3,30.00,North,0,0.0,0.0,29,0.00,CLR,CLR,0.00,WeatherDisplay:10.37,2013-01-22 23:14:00,
2013-01-22 18:19:00,28.0,-0.2,30.00,North,0,0.0,0.0,29,0.00,CLR,CLR,0.00,WeatherDisplay:10.37,2013-01-22 23:19:00,
2013-01-22 18:24:00,28.0,-0.2,30.00,NNW,338,0.0,0.0,29,0.00,CLR,CLR,0.00,WeatherDisplay:10.37,2013-01-22 23:24:00,
2013-01-22 18:29:00,28.0,-0.2,30.00,NNW,338,0.0,0.0,29,0.00,CLR,CLR,0.00,WeatherDisplay:10.37,2013-01-22 23:29:00,
2013-01-22 18:34:00,28.0,-0.2,30.00,NNW,338,0.0,0.0,29,0.00,CLR,CLR,0.00,WeatherDisplay:10.37,2013-01-22 23:34:00,
2013-01-22 18:39:00,27.5,0.1,29.99,NNW,338,0.0,0.0,30,0.00,CLR,CLR,0.00,WeatherDisplay:10.37,2013-01-22 23:39:00,
2013-01-22 18:44:00,27.3,-0.1,29.99,NNW,338,0.0,0.0,30,0.00,CLR,CLR,0.00,WeatherDisplay:10.37,2013-01-22 23:44:00,
2013-01-22 18:49:00,27.1,-0.3,29.99,NNW,338,0.0,0.0,30,0.00,CLR,CLR,0.00,WeatherDisplay:10.37,2013-01-22 23:49:00,
2013-01-22 18:54:00,27.1,0.4,30.00,NNE,22,0.0,0.0,31,0.00,CLR,CLR,0.00,WeatherDisplay:10.37,2013-01-22 23:54:00,
2013-01-22 18:59:00,27.1,0.4,30.00,North,0,0.0,0.0,31,0.00,CLR,CLR,0.00,WeatherDisplay:10.37,2013-01-22 23:59:00,
2013-01-22 19:04:00,27.1,0.4,30.00,NE,45,0.0,0.0,31,0.00,CLR,CLR,0.00,WeatherDisplay:10.37,2013-01-23 00:04:00,
2013-01-22 19:09:00,27.3,-0.1,30.00,NW,315,0.0,0.0,30,0.00,CLR,CLR,0.00,WeatherDisplay:10.37,2013-01-23 00:09:00,
2013-01-22 19:15:00,27.1,-0.3,30.00,NW,315,0.0,0.0,30,0.00,CLR,CLR,0.00,WeatherDisplay:10.37,2013-01-23 00:15:00,
2013-01-22 19:20:00,27.1,-0.3,30.00,NW,315,0.0,0.0,30,0.00,CLR,CLR,0.00,WeatherDisplay:10.37,2013-01-23 00:20:00,
2013-01-22 19:25:00,26.8,-0.6,30.00,NNW,338,0.0,0.0,30,0.00,CLR,CLR,0.00,WeatherDisplay:10.37,2013-01-23 00:25:00,
2013-01-22 19:30:00,26.4,-0.9,30.00,NNW,338,0.0,0.0,30,0.00,CLR,CLR,0.00,WeatherDisplay:10.37,2013-01-23 00:30:00,
2013-01-22 19:35:00,26.4,-0.9,30.00,NNW,338,0.0,0.0,30,0.00,CLR,CLR,0.00,WeatherDisplay:10.37,2013-01-23 00:35:00,
2013-01-22 19:40:00,26.2,-0.3,30.00,NNW,338,0.0,0.0,31,0.00,CLR,CLR,0.00,WeatherDisplay:10.37,2013-01-23 00:40:00,
2013-01-22 19:45:00,26.2,-0.3,30.00,NNW,338,0.0,0.0,31,0.00,CLR,CLR,0.00,WeatherDisplay:10.37,2013-01-23 00:45:00,
2013-01-22 19:50:00,26.2,0.3,30.00,NNW,338,0.0,0.0,32,0.00,CLR,CLR,0.00,WeatherDisplay:10.37,2013-01-23 00:50:00,
2013-01-22 19:55:00,26.2,0.3,30.00,NNW,338,0.0,0.0,32,0.00,CLR,CLR,0.00,WeatherDisplay:10.37,2013-01-23 00:55:00,
2013-01-22 20:00:00,25.9,0.0,30.00,NNW,338,0.0,0.0,32,0.00,CLR,CLR,0.00,WeatherDisplay:10.37,2013-01-23 01:00:00,
2013-01-22 20:06:00,25.5,-0.3,30.00,NNW,338,0.0,0.0,32,0.00,CLR,CLR,0.00,WeatherDisplay:10.37,2013-01-23 01:06:00,
2013-01-22 20:11:00,25.7,-0.1,30.00,NNW,338,0.0,0.0,32,0.00,CLR,CLR,0.00,WeatherDisplay:10.37,2013-01-23 01:11:00,
2013-01-22 20:17:00,25.7,0.5,30.00,NNW,338,0.0,0.0,33,0.00,CLR,CLR,0.00,WeatherDisplay:10.37,2013-01-23 01:17:00,
2013-01-22 20:22:00,25.9,0.7,30.00,NNW,338,0.0,0.0,33,0.00,CLR,CLR,0.00,WeatherDisplay:10.37,2013-01-23 01:22:00,
2013-01-22 20:27:00,25.9,0.0,30.00,NNW,338,0.0,0.0,32,0.00,CLR,CLR,0.00,WeatherDisplay:10.37,2013-01-23 01:27:00,
2013-01-22 20:32:00,25.5,0.4,30.00,North,0,0.0,0.0,33,0.00,CLR,CLR,0.00,WeatherDisplay:10.37,2013-01-23 01:32:00,
2013-01-22 20:37:00,25.3,0.2,30.00,North,0,0.0,0.0,33,0.00,CLR,CLR,0.00,WeatherDisplay:10.37,2013-01-23 01:37:00,
2013-01-22 20:42:00,25.3,0.2,30.00,North,0,0.0,0.0,33,0.00,CLR,CLR,0.00,WeatherDisplay:10.37,2013-01-23 01:42:00,
2013-01-22 20:47:00,25.0,-0.1,30.00,North,0,0.0,0.0,33,0.00,CLR,CLR,0.00,WeatherDisplay:10.37,2013-01-23 01:47:00,
2013-01-22 20:52:00,25.0,-0.1,30.00,North,0,0.0,0.0,33,0.00,CLR,CLR,0.00,WeatherDisplay:10.37,2013-01-23 01:52:00,
2013-01-22 20:57:00,25.0,0.5,30.00,North,0,0.0,0.0,34,0.00,CLR,CLR,0.00,WeatherDisplay:10.37,2013-01-23 01:57:00,
2013-01-22 21:02:00,24.6,0.2,30.00,North,0,0.0,0.0,34,0.00,CLR,CLR,0.00,WeatherDisplay:10.37,2013-01-23 02:02:00,
2013-01-22 21:08:00,24.4,0.0,30.00,North,0,0.0,0.0,34,0.00,CLR,CLR,0.00,WeatherDisplay:10.37,2013-01-23 02:08:00,
2013-01-22 21:13:00,24.4,0.0,30.01,North,0,0.0,0.0,34,0.00,CLR,CLR,0.00,WeatherDisplay:10.37,2013-01-23 02:13:00,
2013-01-22 21:18:00,24.4,0.0,30.01,North,0,0.0,0.0,34,0.00,CLR,CLR,0.00,WeatherDisplay:10.37,2013-01-23 02:18:00,
2013-01-22 21:23:00,24.3,0.5,30.02,North,0,0.0,0.0,35,0.00,CLR,CLR,0.00,WeatherDisplay:10.37,2013-01-23 02:23:00,
2013-01-22 21:28:00,23.9,0.8,30.02,North,0,0.0,0.0,36,0.00,CLR,CLR,0.00,WeatherDisplay:10.37,2013-01-23 02:28:00,
2013-01-22 21:33:00,23.7,1.2,30.03,North,0,0.0,0.0,37,0.00,CLR,CLR,0.00,WeatherDisplay:10.37,2013-01-23 02:33:00,
2013-01-22 21:38:00,23.7,0.6,30.03,North,0,0.0,0.0,36,0.00,CLR,CLR,0.00,WeatherDisplay:10.37,2013-01-23 02:38:00,
2013-01-22 21:43:00,23.5,0.5,30.03,North,0,0.0,0.0,36,0.00,CLR,CLR,0.00,WeatherDisplay:10.37,2013-01-23 02:43:00,
2013-01-22 21:48:00,23.5,1.0,30.03,WNW,292,0.0,0.0,37,0.00,CLR,CLR,0.00,WeatherDisplay:10.37,2013-01-23 02:48:00,
2013-01-22 21:54:00,23.5,1.0,30.02,NNW,338,0.0,0.0,37,0.00,CLR,CLR,0.00,WeatherDisplay:10.37,2013-01-23 02:54:00,
2013-01-22 21:59:00,23.5,1.0,30.02,NNW,338,0.0,0.0,37,0.00,CLR,CLR,0.00,WeatherDisplay:10.37,2013-01-23 02:59:00,
2013-01-22 22:04:00,23.5,1.6,30.03,NNW,338,0.0,0.0,38,0.00,CLR,CLR,0.00,WeatherDisplay:10.37,2013-01-23 03:04:00,
2013-01-22 22:09:00,23.5,1.0,30.02,NNW,338,0.0,0.0,37,0.00,CLR,CLR,0.00,WeatherDisplay:10.37,2013-01-23 03:09:00,
2013-01-22 22:14:00,23.4,1.4,30.02,NNW,338,0.0,0.0,38,0.00,CLR,CLR,0.00,WeatherDisplay:10.37,2013-01-23 03:14:00,
2013-01-22 22:19:00,23.2,1.3,30.03,NNW,338,0.0,0.0,38,0.00,CLR,CLR,0.00,WeatherDisplay:10.37,2013-01-23 03:19:00,
2013-01-22 22:24:00,23.2,1.8,30.02,NNW,338,0.0,0.0,39,0.00,CLR,CLR,0.00,WeatherDisplay:10.37,2013-01-23 03:24:00,
2013-01-22 22:29:00,23.4,2.6,30.03,North,0,0.0,0.0,40,0.00,CLR,CLR,0.00,WeatherDisplay:10.37,2013-01-23 03:29:00,
2013-01-22 22:34:00,23.5,2.7,30.03,NNW,338,0.0,0.0,40,0.00,CLR,CLR,0.00,WeatherDisplay:10.37,2013-01-23 03:34:00,
2013-01-22 22:39:00,23.7,2.9,30.02,North,0,0.0,0.0,40,0.00,CLR,CLR,0.00,WeatherDisplay:10.37,2013-01-23 03:39:00,
2013-01-22 22:44:00,23.5,2.2,30.02,South,180,0.0,0.0,39,0.00,CLR,CLR,0.00,WeatherDisplay:10.37,2013-01-23 03:44:00,
2013-01-22 22:49:00,23.5,2.2,30.02,South,180,0.0,0.0,39,0.00,CLR,CLR,0.00,WeatherDisplay:10.37,2013-01-23 03:49:00,
2013-01-22 22:54:00,23.5,2.7,30.03,South,180,0.0,0.0,40,0.00,CLR,CLR,0.00,WeatherDisplay:10.37,2013-01-23 03:54:00,
2013-01-22 23:00:00,22.8,2.1,30.02,South,180,0.0,0.0,40,0.00,CLR,CLR,0.00,WeatherDisplay:10.37,2013-01-23 04:00:00,
2013-01-22 23:05:00,22.8,2.6,30.03,South,180,0.0,0.0,41,0.00,CLR,CLR,0.00,WeatherDisplay:10.37,2013-01-23 04:05:00,
2013-01-22 23:10:00,22.8,1.5,30.03,South,180,0.0,0.0,39,0.00,CLR,CLR,0.00,WeatherDisplay:10.37,2013-01-23 04:10:00,
2013-01-22 23:15:00,22.6,1.4,30.03,South,180,0.0,0.0,39,0.00,CLR,CLR,0.00,WeatherDisplay:10.37,2013-01-23 04:15:00,
2013-01-22 23:21:00,22.6,1.4,30.02,South,180,0.0,0.0,39,0.00,CLR,CLR,0.00,WeatherDisplay:10.37,2013-01-23 04:21:00,
2013-01-22 23:26:00,22.6,0.8,30.02,South,180,0.0,0.0,38,0.00,CLR,CLR,0.00,WeatherDisplay:10.37,2013-01-23 04:26:00,
2013-01-22 23:31:00,22.6,1.4,30.02,South,180,0.0,0.0,39,0.00,CLR,CLR,0.00,WeatherDisplay:10.37,2013-01-23 04:31:00,
2013-01-22 23:36:00,22.8,1.0,30.02,South,180,0.0,0.0,38,0.00,CLR,CLR,0.00,WeatherDisplay:10.37,2013-01-23 04:36:00,
2013-01-22 23:41:00,22.6,1.4,30.02,South,180,0.0,0.0,39,0.00,CLR,CLR,0.00,WeatherDisplay:10.37,2013-01-23 04:41:00,
2013-01-22 23:46:00,22.6,3.0,30.02,South,180,0.0,0.0,42,0.00,CLR,CLR,0.00,WeatherDisplay:10.37,2013-01-23 04:46:00,
2013-01-22 23:51:00,21.9,2.8,30.02,South,180,0.0,0.0,43,0.00,CLR,CLR,0.00,WeatherDisplay:10.37,2013-01-23 04:51:00,
2013-01-22 23:56:00,21.7,1.6,30.02,South,180,0.0,0.0,41,0.00,CLR,CLR,0.00,WeatherDisplay:10.37,2013-01-23 04:56:00,